Christina — ERJH — position and weather

sailwx.info

Track history (hours):
 
Tides and Currents Weather Stations Pressure Air Temp Water Temp Dewpoint Dewpoint Depression Visibility Wind Speed Wind Dir Waves Ship Positions

Christina

Last reported at 2014-Oct-22 15:32 UTC. Time now 2014-Oct-30 18:54 UTC.
Position N 40°58' E 028°60'.
Warning: this ship's position is 8 days out of date.

Length 72 m; draft 5.4 m.

Type: Ship (hazmat cat A). MMSI: 214181008.

Date/timePositionNaut miles runAvg speedWind from/ knotsBaromVisibWave heightAir tempDewpointWater temp
2014-Oct-22 15:32N 40°58' E 028°60'5 4.5
2014-Oct-22 14:19N 40°53' E 029°01'5 6.5
2014-Oct-22 13:33N 40°48' E 029°03'2 1.4
2014-Oct-22 12:23N 40°46' E 029°03'2 0.8
2014-Oct-22 09:33N 40°48' E 029°00'1 0.9
2014-Oct-22 08:29N 40°48' E 028°59'3 2.3
2014-Oct-22 07:23N 40°50' E 028°57'1 0.6
2014-Oct-22 05:25N 40°49' E 028°56'86 7.7
2014-Oct-21 18:15N 40°32' E 027°05'47 7.0
2014-Oct-21 11:33N 40°03' E 026°17'6 6.5
2014-Oct-21 10:33N 39°60' E 026°09'16 6.9
2014-Oct-21 08:10N 39°44' E 026°04'13 7.6
2014-Oct-21 06:30N 39°33' E 025°56'7 7.4
2014-Oct-21 05:33N 39°26' E 025°52'7 7.5
2014-Oct-21 04:33N 39°20' E 025°47'21 7.1
2014-Oct-21 01:33N 38°59' E 025°54'  
Track history (hours):
 
Tides and Currents Weather Stations Pressure Air Temp Water Temp Dewpoint Dewpoint Depression Visibility Wind Speed Wind Dir Waves Ship Positions

Christina

Last reported at 2014-Oct-22 15:32 UTC. Time now 2014-Oct-30 18:54 UTC.
Position N 40°58' E 028°60'.
Warning: this ship's position is 8 days out of date.

Length 72 m; draft 5.4 m.

Type: Ship (hazmat cat A). MMSI: 214181008.

Date/timePositionNaut miles runAvg speedWind from/ knotsBaromVisibWave heightAir tempDewpointWater temp
2014-Oct-22 15:32N 40°58' E 028°60'5 4.5
2014-Oct-22 14:19N 40°53' E 029°01'5 6.5
2014-Oct-22 13:33N 40°48' E 029°03'2 1.4
2014-Oct-22 12:23N 40°46' E 029°03'2 0.8
2014-Oct-22 09:33N 40°48' E 029°00'1 0.9
2014-Oct-22 08:29N 40°48' E 028°59'3 2.3
2014-Oct-22 07:23N 40°50' E 028°57'1 0.6
2014-Oct-22 05:25N 40°49' E 028°56'86 7.7
2014-Oct-21 18:15N 40°32' E 027°05'47 7.0
2014-Oct-21 11:33N 40°03' E 026°17'6 6.5
2014-Oct-21 10:33N 39°60' E 026°09'16 6.9
2014-Oct-21 08:10N 39°44' E 026°04'13 7.6
2014-Oct-21 06:30N 39°33' E 025°56'7 7.4
2014-Oct-21 05:33N 39°26' E 025°52'7 7.5
2014-Oct-21 04:33N 39°20' E 025°47'21 7.1
2014-Oct-21 01:33N 38°59' E 025°54'  

Dump ship's entire track history